Overview Statistics Trail Chart Weather Telemetry Raw packets
 

This is the latest recevied weather packets stored in our database for station/object K7OWW-2. If no packets are shown the sender has not sent any weather packets the latest 10 day(s).

<< 33 34 35 36 37 38 39 >>
Time Temp. Humidity Pressure Rain* Wind** Luminosity Snow
1788056039 13.33° C 59% 1016.3 hPa 0 mm - - -
1788055739 13.33° C 59% 1016.3 hPa 0 mm - - -
1788055137 13.89° C 58% 1016.2 hPa 0 mm - - -
1788054537 13.89° C 57% 1016 hPa 0 mm - - -
1788054239 14.44° C 56% 1016 hPa 0 mm - - -
1788053937 14.44° C 56% 1015.9 hPa 0 mm - - -
1788053337 15° C 55% 1015.7 hPa 0 mm - - -
1788052737 15° C 53% 1015.5 hPa 0 mm - - -
1788052439 15.56° C 53% 1015.4 hPa 0 mm - - -
1788052137 15.56° C 53% 1015.4 hPa 0 mm - - -
1788051537 16.67° C 51% 1015.2 hPa 0 mm - - -
1788050937 16.67° C 50% 1015.2 hPa 0 mm - - -
1788050639 16.67° C 49% 1015.1 hPa 0 mm - - -
1788050337 17.22° C 49% 1015 hPa 0 mm - - -
1788049737 17.78° C 46% 1014.9 hPa 0 mm - - -
1788049137 18.33° C 44% 1014.8 hPa 0 mm - - -
1788048839 18.89° C 40% 1014.7 hPa 0 mm - - -
1788048537 18.89° C 39% 1014.8 hPa 0 mm - - -
1788047937 18.33° C 42% 1014.7 hPa 0 mm - - -
1788047337 18.33° C 43% 1014.9 hPa 0 mm - - -
1788047040 18.89° C 42% 1014.9 hPa 0 mm - - -
1788046737 18.89° C 39% 1014.8 hPa 0 mm - - -
1788046137 18.89° C 39% 1014.8 hPa 0 mm - - -
1788045537 18.89° C 39% 1015 hPa 0 mm - - -
1788045239 19.44° C 38% 1015.1 hPa 0 mm - - -

* Rain latest hour (hover to see other rain measurements)
** Current wind speed in m/s (hover to see current wind gust speed)